Hlavní strana
METAR-TAF:

METAR-TAF

Letiště :

Såtenäs, Švédsko

zeměpisná šířka: 58-26N, zeměpisná délka: 012-42E, výška: 54 m

Aktuální stav počasí

Zpráva byla vytvořena před 27 minutami, v 20:20 UTC
Jižní vítr 9 kt
Teplota 5°C
Vlhkost vzduchu 93%
Tlak 1001 hPa
Viditelnost 10 km a více
mrholení, kouřmo

METAR: ESIB 122020Z AUTO 17009KT 9999 DZ BR FEW014/// SCT019/// BKN025/// OVC030/// 05/04 Q1001

Čas: 21:47 (20:47 UTC)

Předpověď počasí

Zpráva byla vytvořena před 9 hodinami a 47 minutami, v 11:00 UTC
Předpověď platná od 12 v 12 UTC do 12 v 16 UTC
Jihovýchodní vítr 10 kt s nárazy do 20 kt
Viditelnost 10 km a více
Oblačno až skoro zataženo ve výšce 2000 ft
Dočasný
od 12 v 12 UTC do 12 v 16 UTC
Viditelnost: 3000 m
Oblačno až skoro zataženo ve výšce 800 ft
Polojasno ve výšce 3000 ft, Cumulonimbus.
dešťové přeháňky

TAF: ESIB 121100Z 1212/1216 13010G20KT 9999 BKN020 TEMPO 1212/1216 3000 SHRA BKN008 SCT030CB RMK MIL

Stav a předpovědi počasí z více než 4 000 letišť (zprávy METAR a TAF).

Červené a žluté tečky na mapě představují dostupné meteorologické stanice.

Když kurzor umístíte na tečku, zobrazí se název stanice.

Pak kliknutím zobrazíte stav a předpověď počasí.

Chcete-li změnit mapu, kliknutím na zelené tlačítko se znaménkem +mapu přiblížíte, kliknutím na zelené tlačítko se znaménkem – mapu oddálíte a kliknutím na zelené šipky přejdete na sousední mapy.


METAR-TAF: